createdAt,value
2019-06-01T00:00:35.468Z,61.04
2019-06-01T00:02:59.961Z,61.67
2019-06-01T00:05:24.398Z,61.26
2019-06-01T00:10:29.044Z,60.85
2019-06-01T00:12:53.518Z,61.54
2019-06-01T00:17:54.615Z,60.93
2019-06-01T00:20:19.055Z,61.48
2019-06-01T00:22:43.515Z,61.57
2019-06-01T00:25:28.750Z,61.35
2019-06-01T00:30:29.817Z,62.01
2019-06-01T00:32:54.282Z,61.24
2019-06-01T00:35:18.873Z,61.48
2019-06-01T00:37:43.474Z,61.62
2019-06-01T00:43:13.427Z,62.07
2019-06-01T00:45:37.873Z,61.74
2019-06-01T00:48:02.496Z,62.21
2019-06-01T00:50:26.940Z,62.56
2019-06-01T00:52:51.477Z,62.62
2019-06-01T00:57:53.865Z,63.12
2019-06-01T01:00:43.838Z,63.19
2019-06-01T01:05:42.650Z,63.10
2019-06-01T01:10:43.202Z,63.71
2019-06-01T01:13:26.809Z,63.97
2019-06-01T01:18:27.141Z,64.15
2019-06-01T01:20:52.065Z,64.13
2019-06-01T01:23:23.628Z,63.38
2019-06-01T01:31:12.394Z,63.55
2019-06-01T01:33:32.041Z,63.50
2019-06-01T01:35:57.759Z,63.60
2019-06-01T01:38:44.310Z,65.23
2019-06-01T01:43:45.436Z,64.76
2019-06-01T01:46:09.873Z,66.43
2019-06-01T01:48:34.342Z,66.10
2019-06-01T01:50:58.776Z,65.24
2019-06-01T01:53:23.251Z,64.91
2019-06-01T01:55:47.696Z,64.86
2019-06-01T02:01:21.353Z,64.37
2019-06-01T02:03:34.956Z,64.86
2019-06-01T02:05:59.399Z,64.62
2019-06-01T02:08:23.840Z,65.13
2019-06-01T02:10:48.301Z,64.79
2019-06-01T02:13:12.806Z,66.06
2019-06-01T02:15:58.297Z,65.49
2019-06-01T02:18:22.846Z,65.74
2019-06-01T02:23:23.821Z,65.53
2019-06-01T02:25:48.292Z,66.57
2019-06-01T02:28:12.765Z,66.15
2019-06-01T02:33:13.864Z,65.98
2019-06-01T02:38:30.527Z,66.06
2019-06-01T02:40:56.910Z,65.31
2019-06-01T02:43:45.186Z,65.47
2019-06-01T02:46:09.663Z,65.15
2019-06-01T02:48:53.464Z,65.26
2019-06-01T02:54:13.495Z,66.22
2019-06-01T02:59:14.047Z,65.71
2019-06-01T03:01:38.857Z,65.57
2019-06-01T03:04:22.732Z,65.92
2019-06-01T03:07:08.826Z,66.08
2019-06-01T03:15:34.223Z,65.76
2019-06-01T03:21:18.705Z,64.56
2019-06-01T03:27:03.367Z,63.97
2019-06-01T03:32:36.704Z,63.83
2019-06-01T03:35:02.919Z,64.50
2019-06-01T03:37:50.752Z,65.80
2019-06-01T03:40:23.524Z,65.98
2019-06-01T03:42:57.066Z,65.89
2019-06-01T03:45:21.607Z,66.59
2019-06-01T03:47:46.125Z,66.05
2019-06-01T03:50:28.632Z,66.42
2019-06-01T03:52:53.089Z,66.83
2019-06-01T03:55:17.777Z,66.57
2019-06-01T03:57:42.236Z,67.33
2019-06-01T04:03:07.180Z,66.74
2019-06-01T04:05:38.182Z,66.85
2019-06-01T04:08:03.428Z,67.08
2019-06-01T04:10:53.165Z,66.73
2019-06-01T04:13:17.609Z,66.77
2019-06-01T04:15:58.358Z,66.97
2019-06-01T04:18:22.820Z,66.82
2019-06-01T04:21:04.233Z,66.86
2019-06-01T04:26:05.976Z,67.18
2019-06-01T04:28:53.066Z,67.37
2019-06-01T04:31:17.528Z,67.79
2019-06-01T04:33:42.070Z,67.85
2019-06-01T04:36:07.033Z,67.43
2019-06-01T04:38:31.492Z,67.78
2019-06-01T04:46:26.827Z,67.45
2019-06-01T04:51:27.405Z,67.52
2019-06-01T04:53:51.873Z,68.27
2019-06-01T04:56:34.639Z,68.08
2019-06-01T04:58:59.162Z,67.83
2019-06-01T05:01:23.648Z,67.65
2019-06-01T05:03:48.210Z,67.24
2019-06-01T05:06:13.432Z,67.37
2019-06-01T05:09:00.258Z,68.90
2019-06-01T05:11:24.732Z,69.43
2019-06-01T05:16:24.764Z,69.00
2019-06-01T05:18:49.249Z,67.79
2019-06-01T05:21:15.162Z,67.59
2019-06-01T05:23:45.244Z,69.37
2019-06-01T05:26:10.885Z,69.46
2019-06-01T05:28:57.408Z,68.77
2019-06-01T05:31:25.206Z,69.34
2019-06-01T05:34:11.946Z,68.94
2019-06-01T05:36:36.575Z,69.44
2019-06-01T05:39:01.024Z,70.15
2019-06-01T05:44:19.070Z,68.06
2019-06-01T05:46:43.819Z,68.05
2019-06-01T05:49:08.287Z,68.07
2019-06-01T05:51:32.887Z,67.47
2019-06-01T05:53:58.950Z,68.42
2019-06-01T05:58:59.482Z,69.05
2019-06-01T06:01:23.945Z,68.64
2019-06-01T06:06:40.957Z,68.71
2019-06-01T06:09:26.214Z,69.96
2019-06-01T06:12:07.192Z,69.23
2019-06-01T06:14:31.640Z,68.76
2019-06-01T06:16:56.170Z,70.42
2019-06-01T06:19:22.705Z,70.60
2019-06-01T06:22:08.966Z,70.02
2019-06-01T06:24:33.438Z,69.61
2019-06-01T06:26:57.891Z,69.58
2019-06-01T06:32:17.512Z,70.16
2019-06-01T06:34:41.987Z,68.11
2019-06-01T06:37:06.528Z,69.18
2019-06-01T06:39:31.016Z,68.78
2019-06-01T06:41:55.469Z,68.49
2019-06-01T06:44:20.603Z,68.80
2019-06-01T06:46:51.808Z,68.75
2019-06-01T06:49:17.077Z,68.38
2019-06-01T06:51:47.867Z,68.68
2019-06-01T06:54:14.581Z,69.30
2019-06-01T06:57:00.123Z,69.08
2019-06-01T06:59:40.983Z,67.72
2019-06-01T07:02:05.517Z,68.03
2019-06-01T07:04:30.001Z,67.70
2019-06-01T07:06:54.520Z,67.24
2019-06-01T07:09:19.951Z,66.92
2019-06-01T07:12:08.483Z,67.11
2019-06-01T07:14:32.971Z,66.56
2019-06-01T07:16:57.420Z,65.46
2019-06-01T07:19:21.920Z,65.80
2019-06-01T07:21:46.382Z,65.10
2019-06-01T07:24:10.841Z,64.71
2019-06-01T07:26:35.428Z,64.29
2019-06-01T07:31:36.266Z,63.67
2019-06-01T07:34:00.748Z,63.39
2019-06-01T07:36:26.586Z,63.74
2019-06-01T07:38:56.664Z,63.10
2019-06-01T07:41:21.118Z,62.40
2019-06-01T07:43:45.599Z,61.71
2019-06-01T07:46:10.062Z,60.75
2019-06-01T07:48:34.548Z,61.08
2019-06-01T07:50:59.000Z,60.43
2019-06-01T07:53:24.052Z,59.66
2019-06-01T07:55:55.749Z,59.51
2019-06-01T07:58:20.819Z,59.24
2019-06-01T08:00:52.070Z,60.11
2019-06-01T08:06:09.243Z,58.01
2019-06-01T08:11:32.176Z,58.28
2019-06-01T08:19:26.353Z,56.95
2019-06-01T08:24:43.599Z,56.03
2019-06-01T08:27:08.033Z,57.02
2019-06-01T08:29:32.882Z,56.86
2019-06-01T08:34:49.768Z,56.67
2019-06-01T08:37:31.432Z,56.12
2019-06-01T08:39:59.118Z,56.67
2019-06-01T08:42:47.490Z,55.67
2019-06-01T08:47:47.721Z,55.79
2019-06-01T08:53:11.809Z,56.68
2019-06-01T08:55:55.654Z,55.50
2019-06-01T08:58:20.095Z,55.65
2019-06-01T09:00:44.699Z,54.72
2019-06-01T09:03:09.143Z,54.19
2019-06-01T09:08:28.920Z,54.60
2019-06-01T09:10:53.515Z,54.22
2019-06-01T09:13:17.963Z,54.98
2019-06-01T09:15:42.506Z,52.94
2019-06-01T09:20:59.517Z,52.45
2019-06-01T09:23:23.978Z,52.79
2019-06-01T09:25:48.460Z,52.42
2019-06-01T09:28:12.973Z,51.61
2019-06-01T09:30:37.509Z,52.22
2019-06-01T09:35:52.594Z,50.79
2019-06-01T09:41:05.587Z,50.73
2019-06-01T09:43:31.095Z,49.89
2019-06-01T09:46:17.748Z,50.21
2019-06-01T09:48:42.267Z,50.08
2019-06-01T09:51:06.806Z,50.93
2019-06-01T09:53:32.616Z,50.18
2019-06-01T09:56:03.582Z,49.95
2019-06-01T09:58:28.220Z,50.38
2019-06-01T10:00:52.806Z,48.71
2019-06-01T10:03:17.327Z,48.58
2019-06-01T10:08:44.790Z,48.04
2019-06-01T10:16:20.703Z,47.19
2019-06-01T10:19:01.146Z,48.83
2019-06-01T10:24:18.250Z,46.39
2019-06-01T10:26:42.764Z,46.74
2019-06-01T10:31:43.244Z,47.33
2019-06-01T10:34:07.699Z,46.70
2019-06-01T10:36:32.158Z,46.86
2019-06-01T10:39:15.215Z,46.73
2019-06-01T10:44:38.913Z,46.22
2019-06-01T10:47:00.409Z,45.69
2019-06-01T10:49:24.853Z,45.58
2019-06-01T10:51:49.387Z,45.69
2019-06-01T10:54:13.819Z,45.12
2019-06-01T10:56:54.960Z,45.77
2019-06-01T10:59:19.428Z,45.54
2019-06-01T11:01:43.905Z,45.71
2019-06-01T11:04:08.509Z,46.31
2019-06-01T11:09:28.349Z,45.42
2019-06-01T11:14:28.733Z,46.37
2019-06-01T11:17:09.781Z,46.29
2019-06-01T11:19:35.259Z,45.58
2019-06-01T11:22:06.027Z,45.38
2019-06-01T11:27:06.619Z,45.54
2019-06-01T11:29:31.066Z,44.28
2019-06-01T11:32:11.618Z,43.90
2019-06-01T11:34:36.483Z,44.02
2019-06-01T11:37:26.105Z,44.24
2019-06-01T11:39:50.643Z,44.71
2019-06-01T11:42:15.090Z,45.04
2019-06-01T11:44:40.704Z,43.68
2019-06-01T11:47:27.201Z,44.96
2019-06-01T11:49:51.647Z,43.66
2019-06-01T11:52:16.120Z,43.68
2019-06-01T11:57:16.753Z,42.60
2019-06-01T12:02:17.621Z,42.26
2019-06-01T12:07:37.680Z,42.79
2019-06-01T12:10:02.291Z,42.55
2019-06-01T12:12:26.735Z,43.01
2019-06-01T12:14:51.221Z,41.92
2019-06-01T12:17:15.668Z,42.10
2019-06-01T12:19:40.770Z,43.37
2019-06-01T12:22:31.963Z,42.62
2019-06-01T12:27:49.351Z,42.09
2019-06-01T12:33:08.602Z,41.99
2019-06-01T12:35:49.637Z,41.76
2019-06-01T12:38:14.083Z,40.91
2019-06-01T12:40:39.135Z,41.88
2019-06-01T12:43:10.417Z,41.94
2019-06-01T12:45:34.887Z,41.39
2019-06-01T12:50:35.820Z,40.81
2019-06-01T12:53:00.260Z,40.94
2019-06-01T12:55:24.790Z,41.43
2019-06-01T12:57:49.421Z,41.91
2019-06-01T13:03:05.219Z,40.44
2019-06-01T13:05:43.670Z,40.85
2019-06-01T13:13:36.554Z,41.14
2019-06-01T13:16:01.036Z,41.42
2019-06-01T13:18:25.489Z,39.59
2019-06-01T13:20:49.965Z,39.93
2019-06-01T13:23:14.486Z,40.36
2019-06-01T13:25:38.943Z,40.34
2019-06-01T13:28:03.388Z,40.46
2019-06-01T13:30:27.942Z,40.06
2019-06-01T13:32:52.843Z,39.44
2019-06-01T13:35:42.258Z,39.57
2019-06-01T13:43:20.030Z,40.41
2019-06-01T13:48:36.609Z,39.53
2019-06-01T13:51:01.137Z,40.46
2019-06-01T13:53:25.667Z,39.28
2019-06-01T13:55:50.584Z,38.49
2019-06-01T14:01:14.943Z,37.57
2019-06-01T14:06:33.796Z,38.37
2019-06-01T14:08:58.339Z,38.34
2019-06-01T14:11:22.895Z,37.75
2019-06-01T14:16:41.350Z,38.35
2019-06-01T14:19:07.091Z,38.81
2019-06-01T14:21:37.289Z,38.68
2019-06-01T14:24:02.008Z,38.36
2019-06-01T14:26:26.496Z,38.58
2019-06-01T14:29:14.694Z,38.94
2019-06-01T14:31:57.119Z,38.99
2019-06-01T14:37:16.217Z,38.61
2019-06-01T14:45:11.521Z,39.12
2019-06-01T14:47:36.012Z,39.07
2019-06-01T14:50:00.445Z,38.50
2019-06-01T14:52:24.984Z,39.48
2019-06-01T14:54:49.673Z,39.06
2019-06-01T14:57:33.527Z,39.16
2019-06-01T14:59:58.251Z,38.72
2019-06-01T15:02:22.718Z,38.89
2019-06-01T15:04:48.297Z,39.48
2019-06-01T15:10:10.889Z,38.25
2019-06-01T15:12:35.415Z,39.00
2019-06-01T15:14:59.878Z,38.96
2019-06-01T15:17:24.412Z,38.84
2019-06-01T15:22:44.668Z,38.90
2019-06-01T15:25:09.446Z,39.23
2019-06-01T15:27:33.934Z,38.24
2019-06-01T15:29:59.003Z,38.40
2019-06-01T15:32:46.155Z,38.62
2019-06-01T15:35:31.392Z,37.55
2019-06-01T15:40:32.480Z,39.16
2019-06-01T15:42:57.347Z,39.10
2019-06-01T15:45:47.345Z,38.78
2019-06-01T15:48:11.808Z,38.74
2019-06-01T15:50:36.268Z,38.68
2019-06-01T15:53:01.372Z,38.67
2019-06-01T15:55:52.138Z,38.52
2019-06-01T15:58:16.787Z,39.00
2019-06-01T16:00:41.311Z,38.67
2019-06-01T16:03:05.937Z,39.63
2019-06-01T16:05:30.389Z,39.95
2019-06-01T16:07:55.175Z,38.88
2019-06-01T16:15:31.850Z,40.55
2019-06-01T16:17:56.342Z,40.98
2019-06-01T16:20:27.147Z,40.17
2019-06-01T16:22:51.594Z,41.26
2019-06-01T16:25:38.959Z,40.70
2019-06-01T16:30:24.514Z,40.58
2019-06-01T16:32:48.940Z,40.69
2019-06-01T16:37:53.063Z,39.86
2019-06-01T16:43:17.799Z,40.07
2019-06-01T16:45:42.339Z,40.29
2019-06-01T16:48:06.796Z,39.85
2019-06-01T16:50:31.408Z,40.66
2019-06-01T16:52:55.989Z,41.47
2019-06-01T16:55:20.456Z,40.91
2019-06-01T16:57:44.969Z,40.95
2019-06-01T17:00:30.210Z,41.42
2019-06-01T17:02:54.795Z,41.14
2019-06-01T17:05:19.362Z,41.18
2019-06-01T17:07:43.921Z,41.35
2019-06-01T17:13:08.940Z,41.42
2019-06-01T17:18:15.456Z,40.59
2019-06-01T17:20:59.305Z,40.11
2019-06-01T17:23:27.287Z,40.33
2019-06-01T17:25:55.949Z,40.12
2019-06-01T17:28:20.464Z,40.40
2019-06-01T17:31:02.297Z,40.46
2019-06-01T17:33:26.893Z,40.85
2019-06-01T17:35:51.369Z,42.09
2019-06-01T17:38:15.953Z,41.80
2019-06-01T17:40:43.155Z,41.57
2019-06-01T17:43:28.707Z,41.39
2019-06-01T17:45:53.249Z,41.76
2019-06-01T17:48:39.551Z,41.71
2019-06-01T17:54:08.339Z,42.87
2019-06-01T17:56:32.929Z,42.00
2019-06-01T17:58:57.458Z,41.63
2019-06-01T18:01:42.123Z,42.53
2019-06-01T18:07:09.989Z,41.42
2019-06-01T18:09:34.637Z,42.66
2019-06-01T18:11:59.113Z,42.64
2019-06-01T18:14:23.629Z,42.58
2019-06-01T18:16:48.247Z,43.35
2019-06-01T18:19:12.834Z,43.46
2019-06-01T18:21:37.358Z,44.01
2019-06-01T18:24:03.388Z,43.50
2019-06-01T18:26:49.839Z,44.02
2019-06-01T18:29:14.417Z,44.45
2019-06-01T18:31:38.970Z,44.10
2019-06-01T18:34:03.550Z,44.49
2019-06-01T18:36:28.083Z,44.42
2019-06-01T18:38:52.613Z,44.17
2019-06-01T18:41:20.003Z,44.58
2019-06-01T18:44:07.773Z,44.31
2019-06-01T18:46:32.279Z,44.75
2019-06-01T18:48:56.744Z,44.68
2019-06-01T18:51:21.225Z,43.92
2019-06-01T18:53:45.679Z,44.01
2019-06-01T18:56:10.263Z,44.59
2019-06-01T18:58:51.281Z,44.89
2019-06-01T19:01:20.606Z,44.74
2019-06-01T19:03:47.442Z,43.55
2019-06-01T19:06:12.010Z,43.38
2019-06-01T19:08:36.518Z,43.02
2019-06-01T19:11:01.073Z,43.20
2019-06-01T19:13:25.575Z,43.07
2019-06-01T19:15:50.049Z,42.67
2019-06-01T19:18:14.705Z,43.03
2019-06-01T19:21:02.571Z,43.16
2019-06-01T19:23:47.822Z,44.44
2019-06-01T19:26:14.869Z,43.60
2019-06-01T19:29:00.224Z,43.58
2019-06-01T19:31:24.691Z,43.37
2019-06-01T19:34:06.873Z,43.58
2019-06-01T19:39:50.871Z,44.32
2019-06-01T19:42:15.631Z,44.86
2019-06-01T19:44:40.167Z,45.08
2019-06-01T19:47:04.703Z,45.18
2019-06-01T19:49:29.144Z,45.36
2019-06-01T19:51:53.601Z,45.40
2019-06-01T19:54:19.027Z,45.38
2019-06-01T19:56:49.728Z,45.69
2019-06-01T19:59:14.239Z,46.62
2019-06-01T20:01:54.932Z,47.01
2019-06-01T20:04:19.366Z,47.36
2019-06-01T20:07:01.797Z,47.57
2019-06-01T20:09:26.245Z,47.92
2019-06-01T20:12:01.507Z,48.19
2019-06-01T20:14:22.588Z,48.42
2019-06-01T20:17:12.108Z,49.00
2019-06-01T20:19:36.605Z,49.39
2019-06-01T20:22:01.124Z,50.66
2019-06-01T20:24:25.628Z,50.66
2019-06-01T20:26:50.082Z,50.16
2019-06-01T20:29:15.579Z,50.30
2019-06-01T20:32:02.876Z,50.60
2019-06-01T20:34:27.340Z,51.34
2019-06-01T20:36:51.788Z,51.18
2019-06-01T20:39:16.296Z,51.14
2019-06-01T20:41:40.672Z,51.08
2019-06-01T20:44:25.940Z,51.27
2019-06-01T20:46:50.389Z,51.68
2019-06-01T20:49:31.102Z,51.51
2019-06-01T20:54:48.431Z,52.23
2019-06-01T21:00:07.641Z,52.39
2019-06-01T21:02:32.264Z,52.48
2019-06-01T21:04:56.802Z,52.93
2019-06-01T21:07:21.965Z,52.68
2019-06-01T21:09:53.084Z,52.75
2019-06-01T21:12:18.455Z,52.65
2019-06-01T21:15:07.012Z,53.21
2019-06-01T21:20:29.983Z,53.20
2019-06-01T21:22:54.109Z,54.29
2019-06-01T21:27:54.588Z,54.13
2019-06-01T21:33:11.821Z,55.23
2019-06-01T21:35:36.327Z,55.23
2019-06-01T21:38:00.877Z,55.57
2019-06-01T21:40:25.730Z,55.13
2019-06-01T21:43:06.793Z,55.20
2019-06-01T21:45:28.117Z,55.12
2019-06-01T21:47:52.647Z,54.96
2019-06-01T21:50:18.184Z,54.95
2019-06-01T21:53:04.837Z,54.89
2019-06-01T21:58:06.006Z,54.90
2019-06-01T22:00:51.337Z,55.10
2019-06-01T22:03:16.816Z,55.35
2019-06-01T22:06:06.456Z,55.19
2019-06-01T22:08:30.899Z,55.35
2019-06-01T22:10:55.463Z,55.15
2019-06-01T22:15:55.841Z,55.21
2019-06-01T22:18:21.392Z,55.39
2019-06-01T22:20:52.187Z,55.32
2019-06-01T22:23:17.950Z,55.60
2019-06-01T22:28:24.522Z,55.56
2019-06-01T22:30:55.409Z,56.02
2019-06-01T22:33:21.449Z,57.24
2019-06-01T22:36:07.987Z,56.94
2019-06-01T22:41:08.630Z,55.87
2019-06-01T22:46:08.854Z,57.16
2019-06-01T22:51:09.559Z,57.89
2019-06-01T22:56:29.441Z,57.39
2019-06-01T22:58:53.934Z,57.34
2019-06-01T23:03:54.885Z,57.08
2019-06-01T23:06:19.441Z,57.63
2019-06-01T23:08:44.169Z,57.70
2019-06-01T23:14:03.820Z,57.22
2019-06-01T23:16:28.302Z,57.39
2019-06-01T23:18:52.818Z,58.73
2019-06-01T23:26:30.334Z,57.95
2019-06-01T23:31:32.327Z,58.11
2019-06-01T23:34:22.335Z,58.28
2019-06-01T23:39:22.723Z,58.34
2019-06-01T23:41:54.475Z,58.31
2019-06-01T23:44:35.293Z,58.51
2019-06-01T23:49:52.490Z,58.53
2019-06-01T23:52:17.046Z,58.73
2019-06-01T23:54:41.495Z,59.19
2019-06-01T23:57:06.045Z,59.38
